Terminal Aerodrome Forecast
Issued by NWS San Angelo, TX

Home | Current Version | Previous Version | Text Only | Print | Product List | Glossary On
Versions: 1 2 3 4 5 6 7 8 9 10 11 12
118
FTUS44 KSJT 081733
TAFSJT
TAF
KSJT 081733Z 0818/0918 34011KT P6SM BKN250
      TEMPO 0818/0822 34011G19KT
     FM090000 30004KT P6SM SCT250=

USA.gov is the U.S. government's official web portal to all federal, state and local government web resources and services.